Time;durP1;ratioP1;P1;durP2;ratioP2;P2;SDS_P1;SDS_P2;PMS_P1;PMS_P2;Temp;Humidity;BMP_temperature;BMP_pressure;BME280_temperature;BME280_humidity;BME280_pressure;Samples;Min_cycle;Max_cycle;Signal;HPM_P1;HPM_P2
2022/10/05 00:02:19;;;;;;;0.25;0.20;;;23.10;54.40;;;;;;6108032;28;20246;-57
2022/10/05 00:05:26;;;;;;;0.00;0.00;;;23.00;54.40;;;;;;6113586;28;20133;-58
2022/10/05 00:08:32;;;;;;;0.30;0.20;;;22.80;54.20;;;;;;6110520;28;20034;-57
2022/10/05 00:11:34;;;;;;;0.50;0.20;;;22.80;54.20;;;;;;6113945;28;20931;-58
2022/10/05 00:14:36;;;;;;;0.20;0.20;;;23.10;54.50;;;;;;6112397;28;20057;-55
2022/10/05 00:17:38;;;;;;;0.30;0.20;;;23.20;54.40;;;;;;6108688;28;21441;-57
2022/10/05 00:20:41;;;;;;;0.20;0.17;;;23.30;54.40;;;;;;6111568;28;20047;-58
2022/10/05 00:23:43;;;;;;;0.22;0.20;;;23.40;54.40;;;;;;6106974;28;20142;-58
2022/10/05 00:26:44;;;;;;;;;;;23.30;54.40;;;;;;6108046;28;20051;-58
2022/10/05 00:29:47;;;;;;;0.20;0.20;;;23.20;54.50;;;;;;6111700;28;19926;-56
2022/10/05 00:32:50;;;;;;;0.50;0.20;;;23.00;54.30;;;;;;6095456;28;20050;-57
2022/10/05 00:35:52;;;;;;;0.10;0.10;;;22.80;54.70;;;;;;6109515;28;20061;-56
2022/10/05 00:38:54;;;;;;;0.13;0.13;;;22.70;53.90;;;;;;6113859;28;20273;-56
2022/10/05 00:42:11;;;;;;;0.10;0.10;;;23.30;54.30;;;;;;6108067;28;21075;-58
2022/10/05 00:45:21;;;;;;;0.20;0.20;;;23.30;54.20;;;;;;6112650;28;20097;-57
2022/10/05 00:48:31;;;;;;;0.05;0.05;;;22.80;53.80;;;;;;6109645;28;20984;-58
2022/10/05 00:51:36;;;;;;;0.27;0.20;;;22.90;53.90;;;;;;6108627;28;20134;-58
2022/10/05 00:54:41;;;;;;;0.10;0.10;;;23.10;54.00;;;;;;6112127;28;20298;-57
2022/10/05 00:57:54;;;;;;;0.10;0.10;;;22.80;53.80;;;;;;6113734;28;20775;-55
2022/10/05 01:01:05;;;;;;;0.20;0.20;;;22.90;53.80;;;;;;6112137;28;20077;-58
2022/10/05 01:04:15;;;;;;;0.20;0.10;;;22.90;53.90;;;;;;6110940;28;20091;-57
2022/10/05 01:07:26;;;;;;;0.10;0.10;;;23.20;54.00;;;;;;6114366;28;20090;-56
2022/10/05 01:10:37;;;;;;;0.38;0.20;;;23.20;54.00;;;;;;6115765;28;20047;-58
2022/10/05 01:13:48;;;;;;;0.10;0.10;;;23.00;54.00;;;;;;6108014;28;20362;-54
2022/10/05 01:16:55;;;;;;;0.10;0.10;;;23.30;54.10;;;;;;6106752;28;20487;-57
2022/10/05 01:20:19;;;;;;;0.15;0.15;;;22.70;53.80;;;;;;6104901;28;20275;-56
2022/10/05 01:23:43;;;;;;;0.20;0.20;;;22.90;54.00;;;;;;6103865;28;20549;-54
2022/10/05 01:27:11;;;;;;;0.10;0.10;;;23.20;54.20;;;;;;6101775;28;20161;-55
2022/10/05 01:30:20;;;;;;;0.17;0.17;;;23.20;54.20;;;;;;6109060;28;20184;-54
2022/10/05 01:33:28;;;;;;;0.22;0.20;;;23.00;54.20;;;;;;6112438;28;20039;-56
2022/10/05 01:36:36;;;;;;;0.20;0.20;;;22.80;54.10;;;;;;6109476;28;20368;-55
2022/10/05 01:39:45;;;;;;;0.17;0.10;;;22.80;54.10;;;;;;6109285;28;20046;-54
2022/10/05 01:42:58;;;;;;;0.10;0.10;;;23.10;54.40;;;;;;6110315;28;20183;-53
2022/10/05 01:46:11;;;;;;;0.17;0.17;;;22.70;54.30;;;;;;6107526;28;20733;-56
2022/10/05 01:49:32;;;;;;;0.15;0.10;;;23.30;54.70;;;;;;6106320;28;20374;-57
2022/10/05 01:52:46;;;;;;;0.32;0.20;;;22.90;54.60;;;;;;6109443;28;20806;-54
2022/10/05 01:55:55;;;;;;;0.20;0.20;;;23.30;54.90;;;;;;6109576;28;20051;-54
2022/10/05 01:59:07;;;;;;;0.20;0.20;;;23.00;54.90;;;;;;6110468;28;20406;-56
2022/10/05 02:02:11;;;;;;;0.20;0.20;;;23.00;54.90;;;;;;6100864;28;20089;-53
2022/10/05 02:05:18;;;;;;;0.15;0.15;;;23.00;55.10;;;;;;6106388;28;20050;-55
2022/10/05 02:08:26;;;;;;;0.30;0.30;;;23.20;55.20;;;;;;6110986;28;20043;-53
2022/10/05 02:11:31;;;;;;;0.20;0.10;;;23.30;55.40;;;;;;6104934;28;20355;-57
2022/10/05 02:14:37;;;;;;;0.13;0.13;;;22.90;55.30;;;;;;6107928;28;20042;-55
2022/10/05 02:17:44;;;;;;;0.30;0.20;;;22.80;55.40;;;;;;6104150;28;20536;-55
2022/10/05 02:20:48;;;;;;;0.20;0.20;;;23.10;55.50;;;;;;6109243;28;20323;-55
2022/10/05 02:23:55;;;;;;;0.20;0.20;;;23.30;55.70;;;;;;6104892;28;20765;-54
2022/10/05 02:26:58;;;;;;;0.10;0.10;;;23.10;55.70;;;;;;6108143;28;20054;-55
2022/10/05 02:30:04;;;;;;;0.20;0.20;;;23.10;56.50;;;;;;6108002;28;20053;-57
2022/10/05 02:33:21;;;;;;;0.22;0.20;;;22.80;55.70;;;;;;6107850;28;20090;-57
2022/10/05 02:36:28;;;;;;;0.20;0.20;;;22.80;55.70;;;;;;6107193;28;20166;-54
2022/10/05 02:39:39;;;;;;;0.30;0.20;;;22.50;55.60;;;;;;6110140;28;20050;-53
2022/10/05 02:42:51;;;;;;;0.10;0.10;;;23.20;56.00;;;;;;6106765;28;20625;-55
2022/10/05 02:46:00;;;;;;;0.20;0.20;;;22.80;55.90;;;;;;6102110;28;20593;-55
2022/10/05 02:49:17;;;;;;;0.10;0.10;;;22.80;55.90;;;;;;6106328;28;20593;-58
2022/10/05 02:52:30;;;;;;;0.20;0.10;;;23.20;56.10;;;;;;6108017;28;20046;-55
2022/10/05 02:55:39;;;;;;;0.10;0.10;;;22.70;55.90;;;;;;6110657;28;20386;-54
2022/10/05 02:58:48;;;;;;;0.10;0.10;;;22.90;55.90;;;;;;6109426;28;20047;-54
2022/10/05 03:01:53;;;;;;;0.10;0.10;;;23.00;56.00;;;;;;6109342;28;20055;-56
2022/10/05 03:05:07;;;;;;;0.10;0.10;;;22.70;55.90;;;;;;6102039;28;20337;-56
2022/10/05 03:08:15;;;;;;;0.13;0.10;;;23.00;56.00;;;;;;6108397;28;20855;-56
2022/10/05 03:11:24;;;;;;;0.10;0.10;;;23.00;56.10;;;;;;6109031;28;20520;-57
2022/10/05 03:14:32;;;;;;;0.10;0.10;;;23.20;56.20;;;;;;6108680;28;20432;-55
2022/10/05 03:17:39;;;;;;;0.35;0.20;;;23.30;56.20;;;;;;6105324;28;20047;-55
2022/10/05 03:20:56;;;;;;;0.10;0.10;;;23.00;56.10;;;;;;6104894;28;20047;-54
2022/10/05 03:24:17;;;;;;;0.20;0.20;;;22.70;56.00;;;;;;6107980;28;20055;-54
2022/10/05 03:27:32;;;;;;;0.10;0.10;;;23.10;56.20;;;;;;6112323;28;20260;-55
2022/10/05 03:30:38;;;;;;;0.20;0.20;;;22.80;56.00;;;;;;6111184;28;20070;-57
2022/10/05 03:33:47;;;;;;;0.10;0.10;;;23.20;56.20;;;;;;6115634;28;20156;-57
2022/10/05 03:36:57;;;;;;;0.20;0.20;;;23.20;56.30;;;;;;6118446;28;20054;-57
2022/10/05 03:40:05;;;;;;;0.10;0.10;;;23.00;56.20;;;;;;6115688;28;20844;-58
2022/10/05 03:43:23;;;;;;;0.55;0.30;;;23.00;56.20;;;;;;6109503;28;20082;-58
2022/10/05 03:46:38;;;;;;;0.20;0.20;;;22.90;56.10;;;;;;6115397;28;20046;-58
2022/10/05 03:49:51;;;;;;;0.10;0.10;;;22.90;56.10;;;;;;6118296;28;20047;-55
2022/10/05 03:52:58;;;;;;;0.20;0.20;;;22.80;56.10;;;;;;6113827;28;20714;-57
2022/10/05 03:56:09;;;;;;;0.20;0.10;;;22.90;56.30;;;;;;6109547;28;20858;-58
2022/10/05 03:59:16;;;;;;;0.45;0.20;;;23.10;56.30;;;;;;6113251;28;20046;-56
2022/10/05 04:02:23;;;;;;;0.13;0.13;;;22.90;56.30;;;;;;6103770;28;20459;-58
2022/10/05 04:05:29;;;;;;;0.10;0.10;;;23.40;56.60;;;;;;6106517;28;20490;-58
2022/10/05 04:08:42;;;;;;;0.30;0.22;;;22.90;56.30;;;;;;6108393;28;20165;-55
2022/10/05 04:11:55;;;;;;;0.10;0.10;;;22.90;56.40;;;;;;6103899;28;20121;-56
2022/10/05 04:15:02;;;;;;;0.20;0.17;;;23.20;56.60;;;;;;6104000;28;20042;-56
2022/10/05 04:18:21;;;;;;;0.10;0.10;;;23.10;56.50;;;;;;6103985;28;20055;-57
2022/10/05 04:21:27;;;;;;;0.20;0.17;;;22.70;56.30;;;;;;6106192;28;20039;-58
2022/10/05 04:24:35;;;;;;;0.55;0.30;;;22.90;56.50;;;;;;6110393;28;20066;-55
2022/10/05 04:27:42;;;;;;;0.25;0.10;;;22.90;56.50;;;;;;6115746;28;21090;-56
2022/10/05 04:30:48;;;;;;;0.20;0.20;;;23.00;56.60;;;;;;6093140;28;20579;-58
2022/10/05 04:33:59;;;;;;;0.10;0.10;;;22.90;56.60;;;;;;6108677;28;20847;-58
2022/10/05 04:37:06;;;;;;;0.10;0.10;;;23.30;56.80;;;;;;6103581;28;20137;-58
2022/10/05 04:40:20;;;;;;;0.20;0.20;;;22.40;56.30;;;;;;6113197;28;20057;-58
2022/10/05 04:43:31;;;;;;;0.20;0.20;;;23.10;56.70;;;;;;6115110;28;20893;-58
2022/10/05 04:46:50;;;;;;;0.23;0.10;;;23.10;56.80;;;;;;6113323;28;20049;-57
2022/10/05 04:50:06;;;;;;;0.10;0.10;;;23.20;56.80;;;;;;6110895;28;20086;-55
2022/10/05 04:53:21;;;;;;;0.10;0.10;;;22.90;56.70;;;;;;6111676;28;20945;-58
2022/10/05 04:56:33;;;;;;;0.30;0.20;;;22.70;56.50;;;;;;6110129;28;20078;-57
2022/10/05 04:59:57;;;;;;;0.20;0.20;;;22.60;56.50;;;;;;6111156;28;20983;-56
2022/10/05 05:03:12;;;;;;;0.28;0.20;;;23.20;56.80;;;;;;6107135;28;20043;-57
2022/10/05 05:06:28;;;;;;;0.20;0.20;;;23.10;56.70;;;;;;6108631;28;21110;-58
2022/10/05 05:09:51;;;;;;;0.20;0.20;;;22.90;56.50;;;;;;6107443;28;20058;-59
2022/10/05 05:13:06;;;;;;;0.13;0.13;;;22.90;56.50;;;;;;6110634;28;20038;-58
2022/10/05 05:16:15;;;;;;;0.30;0.30;;;23.20;56.60;;;;;;6105456;28;20166;-58
2022/10/05 05:19:29;;;;;;;0.30;0.20;;;22.90;56.50;;;;;;6110736;28;20050;-59
2022/10/05 05:22:38;;;;;;;0.40;0.28;;;22.90;56.40;;;;;;6109537;28;20102;-59
2022/10/05 05:25:47;;;;;;;0.10;0.10;;;23.20;56.60;;;;;;6099950;28;20837;-58
2022/10/05 05:29:01;;;;;;;0.20;0.20;;;23.10;56.50;;;;;;6109457;28;20043;-59
2022/10/05 05:32:12;;;;;;;1.38;0.85;;;22.90;56.40;;;;;;6109207;28;20058;-58
2022/10/05 05:35:34;;;;;;;0.25;0.25;;;23.10;56.50;;;;;;6106667;28;20062;-57
2022/10/05 05:38:40;;;;;;;0.10;0.10;;;22.70;56.30;;;;;;6106648;28;20085;-59
2022/10/05 05:41:53;;;;;;;0.25;0.20;;;23.20;56.60;;;;;;6100165;28;20051;-59
2022/10/05 05:45:03;;;;;;;0.20;0.20;;;23.10;57.10;;;;;;6104981;28;20046;-58
2022/10/05 05:48:15;;;;;;;0.77;0.20;;;23.20;56.60;;;;;;6101330;28;20039;-58
2022/10/05 05:51:22;;;;;;;1.30;0.20;;;22.90;56.50;;;;;;6104423;28;20046;-58
2022/10/05 05:54:29;;;;;;;0.20;0.15;;;23.20;56.70;;;;;;6095502;28;20059;-57
2022/10/05 05:57:37;;;;;;;0.32;0.32;;;23.40;56.80;;;;;;6091932;28;20054;-58
2022/10/05 06:00:45;;;;;;;0.30;0.30;;;22.90;56.60;;;;;;6088665;28;20053;-58
2022/10/05 06:03:52;;;;;;;0.30;0.20;;;22.70;56.50;;;;;;6080322;28;20043;-58
2022/10/05 06:06:57;;;;;;;0.40;0.22;;;22.50;56.50;;;;;;6080651;28;20978;-58
2022/10/05 06:10:25;;;;;;;0.20;0.17;;;22.70;56.60;;;;;;6075499;28;20038;-58
2022/10/05 06:13:37;;;;;;;0.70;0.20;;;22.80;56.60;;;;;;6086893;28;20082;-59
2022/10/05 06:16:46;;;;;;;0.20;0.20;;;23.20;56.80;;;;;;6066753;28;20058;-59
2022/10/05 06:19:53;;;;;;;0.55;0.30;;;23.20;56.80;;;;;;6070743;28;20047;-58
2022/10/05 06:22:59;;;;;;;0.75;0.30;;;23.30;56.90;;;;;;6079874;28;22167;-58
2022/10/05 06:26:13;;;;;;;0.30;0.30;;;22.90;56.70;;;;;;6076655;28;20841;-56
2022/10/05 06:29:22;;;;;;;0.50;0.30;;;22.90;56.70;;;;;;6053848;28;21141;-54
2022/10/05 06:32:30;;;;;;;0.43;0.30;;;23.10;56.80;;;;;;6042247;28;20131;-58
2022/10/05 06:35:48;;;;;;;1.60;0.20;;;23.10;56.90;;;;;;6017455;28;20097;-58
2022/10/05 06:39:05;;;;;;;0.98;0.25;;;22.80;56.70;;;;;;6009880;28;20054;-57
2022/10/05 06:42:20;;;;;;;0.73;0.30;;;23.20;56.90;;;;;;6024225;28;20328;-59
2022/10/05 06:45:48;;;;;;;0.50;0.20;;;22.90;57.40;;;;;;6013931;28;21721;-59
2022/10/05 06:49:13;;;;;;;0.50;0.28;;;23.20;57.00;;;;;;6018368;28;21055;-59
2022/10/05 06:52:45;;;;;;;0.40;0.25;;;23.20;57.00;;;;;;6007332;28;20055;-59
2022/10/05 06:55:55;;;;;;;0.98;0.40;;;22.90;56.80;;;;;;5986027;28;20169;-59
2022/10/05 06:59:04;;;;;;;0.73;0.35;;;23.30;57.00;;;;;;5945118;28;20047;-58
2022/10/05 07:02:13;;;;;;;0.30;0.25;;;23.10;56.90;;;;;;5948884;28;20039;-58
2022/10/05 07:05:40;;;;;;;0.30;0.30;;;23.10;56.90;;;;;;5954874;28;20051;-61
2022/10/05 07:08:59;;;;;;;1.05;0.40;;;23.20;57.00;;;;;;5895625;28;20058;-60
2022/10/05 07:12:21;;;;;;;0.90;0.50;;;22.80;57.00;;;;;;5894260;28;20169;-63
2022/10/05 07:15:41;;;;;;;0.85;0.50;;;23.20;57.20;;;;;;5936910;28;20169;-60
2022/10/05 07:18:55;;;;;;;0.93;0.50;;;23.30;57.40;;;;;;5927249;28;20089;-58
2022/10/05 07:22:18;;;;;;;1.40;0.60;;;22.70;57.00;;;;;;5903226;28;20327;-58
2022/10/05 07:25:26;;;;;;;1.23;0.73;;;22.90;57.20;;;;;;5916234;28;20050;-59
2022/10/05 07:28:35;;;;;;;0.70;0.47;;;23.90;57.70;;;;;;5910518;28;23194;-57
2022/10/05 07:31:47;;;;;;;1.15;0.80;;;23.40;57.40;;;;;;5905746;28;20336;-59
2022/10/05 07:34:59;;;;;;;3.90;0.73;;;23.40;57.40;;;;;;5842807;28;20629;-59
2022/10/05 07:38:10;;;;;;;1.48;0.68;;;23.30;57.40;;;;;;5872214;28;27299;-59
2022/10/05 07:41:18;;;;;;;0.90;0.50;;;23.00;57.20;;;;;;5944052;28;20055;-58
2022/10/05 07:44:28;;;;;;;1.35;0.65;;;23.30;57.40;;;;;;5934620;28;20043;-57
2022/10/05 07:47:37;;;;;;;1.02;0.60;;;23.20;57.40;;;;;;5933902;28;20055;-57
2022/10/05 07:50:47;;;;;;;1.75;0.60;;;23.00;57.20;;;;;;5945231;28;20056;-58
2022/10/05 07:54:00;;;;;;;1.27;0.50;;;23.30;57.40;;;;;;5938759;28;20050;-58
2022/10/05 07:57:13;;;;;;;1.98;0.52;;;22.70;56.90;;;;;;5936613;28;22247;-58
2022/10/05 08:00:19;;;;;;;1.00;0.70;;;23.00;57.30;;;;;;5957702;28;20046;-58
2022/10/05 08:03:28;;;;;;;1.67;0.50;;;23.20;57.30;;;;;;5939978;28;20097;-58
2022/10/05 08:06:42;;;;;;;0.85;0.50;;;23.30;57.50;;;;;;5888426;28;20043;-59
2022/10/05 08:09:51;;;;;;;1.15;0.50;;;23.00;57.30;;;;;;5917583;28;20166;-56
2022/10/05 08:13:06;;;;;;;1.60;0.60;;;23.40;57.50;;;;;;5885512;28;21417;-56
2022/10/05 08:16:11;;;;;;;0.73;0.52;;;23.30;57.50;;;;;;5911586;28;20050;-56
2022/10/05 08:19:18;;;;;;;0.80;0.60;;;23.10;57.40;;;;;;5931950;28;20141;-55
2022/10/05 08:22:23;;;;;;;0.68;0.52;;;23.40;57.50;;;;;;5953228;28;20153;-59
2022/10/05 08:25:38;;;;;;;1.13;0.70;;;23.20;57.40;;;;;;5954468;28;20133;-59
2022/10/05 08:28:45;;;;;;;1.50;0.70;;;23.10;57.40;;;;;;5904304;28;20050;-57
2022/10/05 08:31:51;;;;;;;2.78;0.70;;;23.50;57.60;;;;;;5928884;28;20338;-58
2022/10/05 08:35:00;;;;;;;1.45;0.60;;;23.40;57.50;;;;;;5917152;28;20062;-57
2022/10/05 08:38:10;;;;;;;1.70;0.57;;;23.50;57.60;;;;;;5928904;28;21010;-53
2022/10/05 08:41:48;;;;;;;0.75;0.50;;;23.40;57.50;;;;;;5952147;28;20173;-56
2022/10/05 08:45:11;;;;;;;1.33;0.85;;;23.50;57.60;;;;;;5931297;28;20043;-55
2022/10/05 08:48:44;;;;;;;2.10;0.80;;;23.60;57.70;;;;;;5939515;28;20046;-54
2022/10/05 08:52:14;;;;;;;0.95;0.55;;;23.30;57.50;;;;;;5933663;28;22039;-57
2022/10/05 08:55:28;;;;;;;1.40;0.80;;;23.20;57.50;;;;;;5915897;28;20057;-54
2022/10/05 08:58:57;;;;;;;1.10;0.80;;;23.50;57.60;;;;;;5947553;28;21171;-61
2022/10/05 09:02:17;;;;;;;1.10;0.70;;;23.50;57.50;;;;;;5925841;28;21642;-58
2022/10/05 09:05:36;;;;;;;1.83;0.50;;;23.10;57.20;;;;;;5932728;28;20058;-59
2022/10/05 09:08:54;;;;;;;1.90;0.77;;;23.50;57.30;;;;;;5914831;28;32286;-58
2022/10/05 09:12:15;;;;;;;1.25;0.57;;;23.70;57.30;;;;;;5927758;28;21791;-58
2022/10/05 09:15:37;;;;;;;1.13;0.55;;;23.60;57.10;;;;;;5921644;28;21999;-60
2022/10/05 09:19:05;;;;;;;1.25;0.60;;;23.70;56.90;;;;;;5941281;28;20058;-60
2022/10/05 09:22:14;;;;;;;0.95;0.50;;;23.60;56.70;;;;;;5923101;28;20050;-60
2022/10/05 09:25:22;;;;;;;0.73;0.40;;;23.40;56.50;;;;;;5938000;28;20051;-60
2022/10/05 09:28:30;;;;;;;0.88;0.50;;;23.50;56.50;;;;;;5937853;28;20057;-59
2022/10/05 09:31:56;;;;;;;1.27;0.75;;;23.50;57.00;;;;;;5953645;28;20162;-60
2022/10/05 09:35:07;;;;;;;1.33;0.40;;;23.60;56.10;;;;;;5954902;28;20049;-60
2022/10/05 09:38:19;;;;;;;1.15;0.47;;;23.00;55.70;;;;;;5957646;28;20564;-60
2022/10/05 09:41:39;;;;;;;;;;;23.40;55.80;;;;;;5937918;28;20284;-57
2022/10/05 09:45:10;;;;;;;1.42;0.50;;;23.70;56.10;;;;;;5919430;28;21080;-57
2022/10/05 09:48:37;;;;;;;1.77;0.60;;;23.60;55.80;;;;;;5937720;28;21006;-55
2022/10/05 09:52:05;;;;;;;0.65;0.60;;;23.70;55.50;;;;;;5954401;28;21641;-57
2022/10/05 09:55:28;;;;;;;1.38;0.68;;;23.40;55.20;;;;;;5939927;28;21081;-59
2022/10/05 09:58:55;;;;;;;1.33;0.85;;;23.70;55.20;;;;;;5927294;28;23085;-56
2022/10/05 10:02:15;;;;;;;1.08;0.45;;;23.50;54.90;;;;;;5924209;28;20050;-58
2022/10/05 10:05:40;;;;;;;3.07;0.60;;;23.60;54.90;;;;;;5913048;28;20047;-58
2022/10/05 10:09:06;;;;;;;1.30;0.60;;;23.40;54.60;;;;;;5912575;28;20057;-60
2022/10/05 10:12:26;;;;;;;1.85;0.60;;;23.70;54.60;;;;;;5924322;28;20042;-59
2022/10/05 10:15:47;;;;;;;2.80;0.63;;;23.60;54.40;;;;;;5942159;28;20056;-61
2022/10/05 10:19:05;;;;;;;1.15;0.50;;;23.70;54.40;;;;;;5977842;28;20361;-59
2022/10/05 10:22:34;;;;;;;1.38;0.60;;;23.80;54.30;;;;;;5950289;28;20055;-57
2022/10/05 10:26:10;;;;;;;1.40;0.60;;;23.70;54.20;;;;;;5945150;28;20145;-59
2022/10/05 10:29:30;;;;;;;1.20;0.45;;;23.50;53.90;;;;;;5974067;28;20053;-54
2022/10/05 10:33:00;;;;;;;1.60;0.40;;;23.70;54.00;;;;;;5916706;28;20097;-56
2022/10/05 10:36:08;;;;;;;1.35;0.40;;;23.60;53.80;;;;;;5924470;28;20119;-58
2022/10/05 10:39:15;;;;;;;2.53;0.50;;;22.80;53.30;;;;;;5980737;28;20598;-58
2022/10/05 10:42:35;;;;;;;0.85;0.30;;;23.70;53.70;;;;;;5913651;28;20051;-56
2022/10/05 10:45:47;;;;;;;1.25;0.50;;;23.40;53.30;;;;;;5967917;28;20053;-57
2022/10/05 10:48:56;;;;;;;0.95;0.60;;;23.70;53.40;;;;;;5993998;28;21216;-60
2022/10/05 10:52:24;;;;;;;0.75;0.25;;;23.60;53.30;;;;;;5972513;28;20182;-61
2022/10/05 10:55:37;;;;;;;1.38;0.30;;;23.80;53.20;;;;;;5967623;28;20058;-59
2022/10/05 10:59:00;;;;;;;0.80;0.30;;;23.40;53.40;;;;;;5959931;28;20062;-59
2022/10/05 11:02:25;;;;;;;0.60;0.30;;;23.70;53.00;;;;;;5974695;28;20047;-62
2022/10/05 11:05:45;;;;;;;1.10;0.30;;;23.60;52.80;;;;;;5956679;28;20069;-60
2022/10/05 11:09:18;;;;;;;1.27;0.35;;;23.80;52.90;;;;;;5995741;28;21827;-61
2022/10/05 11:12:49;;;;;;;0.32;0.20;;;23.80;52.90;;;;;;5990464;28;20050;-60
2022/10/05 11:16:21;;;;;;;1.08;0.28;;;24.20;53.10;;;;;;6006622;28;20980;-61
2022/10/05 11:19:44;;;;;;;2.40;0.57;;;23.80;52.80;;;;;;6026445;28;20086;-57
2022/10/05 11:23:29;;;;;;;1.02;0.40;;;23.70;52.70;;;;;;6002103;28;22299;-57
2022/10/05 11:26:46;;;;;;;1.25;0.47;;;23.70;52.60;;;;;;5954179;28;24470;-60
2022/10/05 11:30:17;;;;;;;2.28;0.55;;;23.70;52.60;;;;;;5965844;28;20134;-58
2022/10/05 11:33:47;;;;;;;1.98;0.40;;;23.60;52.50;;;;;;5951186;28;20078;-61
2022/10/05 11:37:12;;;;;;;1.33;0.30;;;23.90;52.70;;;;;;5994367;28;20065;-60
2022/10/05 11:40:37;;;;;;;2.72;0.40;;;23.50;52.50;;;;;;5970922;28;20269;-58
2022/10/05 11:44:02;;;;;;;1.33;0.40;;;23.90;52.60;;;;;;5916882;28;20043;-58
2022/10/05 11:47:15;;;;;;;1.13;0.47;;;23.80;52.60;;;;;;5967007;28;21201;-60
2022/10/05 11:50:23;;;;;;;0.77;0.30;;;23.70;52.50;;;;;;5970640;28;20049;-58
2022/10/05 11:53:31;;;;;;;2.08;0.30;;;23.90;52.60;;;;;;5931912;28;21241;-58
2022/10/05 11:56:38;;;;;;;1.08;0.30;;;23.70;52.50;;;;;;5968139;28;20062;-62
2022/10/05 11:59:50;;;;;;;0.60;0.30;;;24.00;52.60;;;;;;5936107;28;20051;-63
2022/10/05 12:03:14;;;;;;;1.77;0.63;;;23.80;52.50;;;;;;5896141;28;20189;-60
2022/10/05 12:06:31;;;;;;;1.13;0.40;;;23.60;52.40;;;;;;5886470;28;20047;-60
2022/10/05 12:13:12;;;;;;;2.78;0.43;;;23.70;52.40;;;;;;5902804;28;20046;-60
2022/10/05 12:16:19;;;;;;;2.45;0.30;;;24.10;53.20;;;;;;5872648;28;20261;-62
2022/10/05 12:19:28;;;;;;;0.80;0.40;;;24.00;52.60;;;;;;5890741;28;33360;-64
2022/10/05 12:22:36;;;;;;;1.55;0.65;;;24.10;52.70;;;;;;5895073;28;20132;-63
2022/10/05 12:25:43;;;;;;;1.27;0.32;;;24.30;52.70;;;;;;5871210;28;20061;-61
2022/10/05 12:28:48;;;;;;;2.25;0.50;;;24.00;52.60;;;;;;5889375;28;21693;-61
2022/10/05 12:31:58;;;;;;;1.58;0.70;;;24.20;52.70;;;;;;5896127;28;20046;-62
2022/10/05 12:35:10;;;;;;;1.73;0.57;;;24.20;53.10;;;;;;5889889;28;20131;-62
2022/10/05 12:38:23;;;;;;;1.50;0.45;;;24.20;52.80;;;;;;5899315;28;20431;-62
2022/10/05 12:41:36;;;;;;;1.98;0.45;;;24.20;52.90;;;;;;5902950;28;20059;-63
2022/10/05 12:44:56;;;;;;;2.50;0.70;;;24.10;53.00;;;;;;5910488;28;20047;-61
2022/10/05 12:48:13;;;;;;;1.02;0.60;;;24.20;53.00;;;;;;5930704;28;20257;-63
2022/10/05 12:51:21;;;;;;;1.52;0.68;;;24.00;53.00;;;;;;5918102;28;21260;-60
2022/10/05 12:54:39;;;;;;;1.03;0.43;;;24.00;53.00;;;;;;5885617;28;20043;-59
2022/10/05 12:57:51;;;;;;;2.15;0.43;;;23.90;53.00;;;;;;5917795;28;20070;-61
2022/10/05 13:01:03;;;;;;;1.15;0.47;;;24.20;53.20;;;;;;5902547;28;21038;-57
2022/10/05 13:04:20;;;;;;;2.33;0.60;;;24.40;53.40;;;;;;5878660;28;20050;-59
2022/10/05 13:07:35;;;;;;;2.55;0.50;;;24.20;53.60;;;;;;5894713;28;20178;-57
2022/10/05 13:10:41;;;;;;;2.88;0.52;;;24.10;53.50;;;;;;5907285;28;39233;-60
2022/10/05 13:13:52;;;;;;;1.75;0.50;;;24.30;53.70;;;;;;5906791;28;20051;-59
2022/10/05 13:16:58;;;;;;;;;;;24.30;53.80;;;;;;5918067;28;22170;-56
2022/10/05 13:20:07;;;;;;;0.77;0.40;;;24.50;53.90;;;;;;5899931;28;21420;-57
2022/10/05 13:23:13;;;;;;;1.08;0.32;;;24.30;53.90;;;;;;5878691;28;20050;-57
2022/10/05 13:26:18;;;;;;;0.50;0.20;;;24.10;53.80;;;;;;5946539;28;20284;-55
2022/10/05 13:29:24;;;;;;;0.80;0.30;;;24.30;54.00;;;;;;5917053;28;23188;-55
2022/10/05 13:32:33;;;;;;;1.23;0.50;;;24.10;54.00;;;;;;5892938;28;21275;-57
2022/10/05 13:35:45;;;;;;;1.42;0.50;;;24.70;54.50;;;;;;5932162;28;26557;-57
2022/10/05 13:38:57;;;;;;;2.28;0.57;;;24.20;54.40;;;;;;5893482;28;31421;-58
2022/10/05 13:42:07;;;;;;;1.63;0.40;;;24.30;54.60;;;;;;5899427;28;20113;-58
2022/10/05 13:45:16;;;;;;;1.00;0.43;;;24.20;54.70;;;;;;5895847;28;20050;-60
2022/10/05 13:48:39;;;;;;;1.58;0.43;;;24.30;54.80;;;;;;5909580;28;20160;-62
2022/10/05 13:51:49;;;;;;;1.08;0.40;;;24.30;55.00;;;;;;5893545;28;20835;-61
2022/10/05 13:54:57;;;;;;;1.20;0.40;;;24.30;55.10;;;;;;5892036;28;20051;-62
2022/10/05 13:58:05;;;;;;;0.77;0.30;;;24.00;55.20;;;;;;5896507;28;33914;-62
2022/10/05 14:01:13;;;;;;;0.60;0.30;;;24.20;55.40;;;;;;5860403;28;22576;-63
2022/10/05 14:04:18;;;;;;;0.68;0.25;;;24.20;55.60;;;;;;5863333;28;20377;-62
2022/10/05 14:07:28;;;;;;;1.20;0.47;;;24.10;55.70;;;;;;5892627;28;39619;-61
2022/10/05 14:10:35;;;;;;;1.13;0.50;;;24.30;56.00;;;;;;5882194;28;20051;-61
2022/10/05 14:13:46;;;;;;;0.52;0.30;;;24.10;56.10;;;;;;5890525;28;20047;-62
2022/10/05 14:16:51;;;;;;;1.20;0.40;;;24.30;56.50;;;;;;5903957;28;35377;-62
2022/10/05 14:19:58;;;;;;;1.63;0.40;;;24.20;56.50;;;;;;5912719;28;20074;-62
2022/10/05 14:23:02;;;;;;;1.23;0.50;;;24.30;56.60;;;;;;5932317;28;20082;-62
2022/10/05 14:26:17;;;;;;;0.93;0.32;;;24.00;56.70;;;;;;5926701;28;20371;-62
2022/10/05 14:29:24;;;;;;;1.38;0.50;;;24.10;56.90;;;;;;5922177;28;30668;-59
2022/10/05 14:32:29;;;;;;;0.73;0.38;;;24.30;57.70;;;;;;5892504;28;20089;-63
2022/10/05 14:35:44;;;;;;;0.82;0.38;;;24.30;57.20;;;;;;5898577;28;20042;-62
2022/10/05 14:38:52;;;;;;;0.93;0.40;;;24.30;57.50;;;;;;5888657;28;20054;-61
2022/10/05 14:41:54;;;;;;;1.45;0.47;;;24.00;57.40;;;;;;5890271;28;37205;-62
2022/10/05 14:44:58;;;;;;;1.35;0.30;;;24.30;57.70;;;;;;5914031;28;32304;-63
2022/10/05 14:48:08;;;;;;;0.95;0.45;;;24.20;57.90;;;;;;5889132;28;32827;-62
2022/10/05 14:51:23;;;;;;;1.17;0.55;;;24.40;58.30;;;;;;5894954;28;35451;-62
2022/10/05 14:54:34;;;;;;;0.90;0.30;;;24.20;58.30;;;;;;5915858;28;20054;-64
2022/10/05 14:57:43;;;;;;;1.00;0.40;;;24.20;58.60;;;;;;5900099;28;31353;-62
2022/10/05 15:00:55;;;;;;;1.45;0.20;;;24.20;58.90;;;;;;5897077;28;20903;-62
2022/10/05 15:04:07;;;;;;;0.30;0.20;;;24.30;59.30;;;;;;5858385;28;20464;-61
2022/10/05 15:07:21;;;;;;;0.55;0.28;;;24.30;59.40;;;;;;5884191;28;20058;-61
2022/10/05 15:10:31;;;;;;;0.75;0.25;;;24.30;59.60;;;;;;5896213;28;21406;-59
2022/10/05 15:13:37;;;;;;;0.73;0.30;;;24.60;59.90;;;;;;5914954;28;20054;-59
2022/10/05 15:16:40;;;;;;;5.45;0.38;;;24.40;59.90;;;;;;5901244;28;20054;-62
2022/10/05 15:19:53;;;;;;;0.65;0.40;;;24.30;60.00;;;;;;5905156;28;20365;-63
2022/10/05 15:23:04;;;;;;;0.57;0.40;;;24.00;60.20;;;;;;5919143;28;20383;-63
2022/10/05 15:26:23;;;;;;;4.90;0.43;;;24.60;60.50;;;;;;5919368;28;21101;-61
2022/10/05 15:29:42;;;;;;;0.73;0.30;;;24.30;60.90;;;;;;5942666;28;20062;-61
2022/10/05 15:33:04;;;;;;;0.73;0.30;;;24.00;60.60;;;;;;5943060;28;20051;-62
2022/10/05 15:36:13;;;;;;;0.13;0.13;;;24.30;60.50;;;;;;5928295;28;20047;-62
2022/10/05 15:39:26;;;;;;;0.77;0.20;;;24.40;60.30;;;;;;5950894;28;20145;-61
2022/10/05 15:42:34;;;;;;;3.00;0.30;;;24.30;59.80;;;;;;5940202;28;20047;-62
2022/10/05 15:45:47;;;;;;;0.30;0.10;;;24.30;59.50;;;;;;5974164;28;21793;-61
2022/10/05 15:49:07;;;;;;;0.20;0.20;;;24.20;59.20;;;;;;5948927;28;20296;-64
2022/10/05 15:52:21;;;;;;;0.20;0.10;;;24.20;58.70;;;;;;5959587;28;20061;-58
2022/10/05 15:55:34;;;;;;;1.38;0.20;;;24.20;58.40;;;;;;5961519;28;20122;-62
2022/10/05 15:58:45;;;;;;;0.30;0.20;;;24.00;58.10;;;;;;5983974;28;23136;-61
2022/10/05 16:01:52;;;;;;;0.10;0.10;;;26.00;59.00;;;;;;5982864;28;20170;-64
2022/10/05 16:05:00;;;;;;;0.10;0.00;;;24.30;57.80;;;;;;5979586;28;20046;-65
2022/10/05 16:11:39;;;;;;;1.40;0.00;;;24.40;57.50;;;;;;6018683;28;20046;-65
2022/10/05 16:14:54;;;;;;;0.10;0.10;;;24.20;57.20;;;;;;6029477;28;20132;-65
2022/10/05 16:18:15;;;;;;;0.10;0.10;;;24.20;57.10;;;;;;6018128;28;20047;-63
2022/10/05 16:21:28;;;;;;;0.10;0.10;;;24.30;57.00;;;;;;6026303;28;21015;-64
2022/10/05 16:24:50;;;;;;;0.20;0.20;;;24.30;57.00;;;;;;6015296;28;20181;-62
2022/10/05 16:28:03;;;;;;;0.10;0.10;;;24.50;57.10;;;;;;6039051;28;21179;-64
2022/10/05 16:31:17;;;;;;;0.10;0.10;;;24.30;57.00;;;;;;6047913;28;21142;-60
2022/10/05 16:34:34;;;;;;;0.30;0.10;;;23.90;56.80;;;;;;6039521;28;20054;-61
2022/10/05 16:37:45;;;;;;;0.10;0.10;;;24.00;56.80;;;;;;6042492;28;20051;-63
2022/10/05 16:40:54;;;;;;;0.85;0.20;;;24.20;57.00;;;;;;6055442;28;20058;-63
2022/10/05 16:44:13;;;;;;;1.20;0.80;;;24.50;57.40;;;;;;6064270;28;21173;-62
2022/10/05 16:47:33;;;;;;;1.20;0.90;;;24.50;57.20;;;;;;6063063;28;20055;-62
2022/10/05 16:50:46;;;;;;;0.88;0.70;;;24.30;57.10;;;;;;6065009;28;20054;-66
2022/10/05 16:53:58;;;;;;;0.95;0.52;;;24.20;57.10;;;;;;6071716;28;20070;-64